KAHN/AHN METAR and TAF weather

Enter ICAO airport designator
Station Type Date Time Source
KAHN METAR 2020/02/20 23:23 UTC NOAA

KAHN 202323Z 05010KT 10SM BKN010 OVC016 04/02 A3023 RMK AO2 RAE22 CIG 007V012 P0001 T00390017


Station Type Date Time Source
KAHN Decoded METAR 2020/02/20 23:23 UTC NOAA

ATHENS BEN EPPS AIRPORT, GA, United States (KAHN) 33-57N 083-20W 244M
Feb 20, 2020 - 06:23 PM EST / 2020.02.20 2323 UTC
Wind: from the NE (050 degrees) at 12 MPH (10 KT):0
Visibility: 10 mile(s):0
Sky conditions: overcast
Precipitation last hour: 0.01 inches
Temperature: 39.0 F (3.9 C)
Dew Point: 35.1 F (1.7 C)
Relative Humidity: 85%
Pressure (altimeter): 30.23 in. Hg (1023 hPa)
ob: KAHN 202323Z 05010KT 10SM BKN010 OVC016 04/02 A3023 RMK AO2 RAE22 CIG 007V012 P0001 T00390017
cycle: 23

Station Type Date Time Source
KAHN TAF 2020/02/20 22:39 UTC NOAA

TAF
AMD KAHN 202136Z 2022/2118 07010KT 5SM -RA BR BKN006
FM202300 01011KT 6SM -RA BR OVC006
TEMPO 2106/2109 3SM -RASN BR OVC010
FM210900 01010KT P6SM VCSH BKN030
FM211300 01010KT P6SM SCT150
FM211700 03007KT P6SM SCT250

Example: see airport list